KBBW/BBW METAR and TAF weather

Enter ICAO airport designator
Station Type Date Time Source
KBBW METAR 2021/01/27 12:53 UTC NOAA

KBBW 271253Z AUTO 00000KT 10SM CLR M19/M21 A3024 RMK AO2 SLP295 T11891211


Station Type Date Time Source
KBBW Decoded METAR 2021/01/27 12:53 UTC NOAA

BROKEN BOW MUNICIPAL AIRPORT, NE, United States (KBBW) 41-26N 099-38W
Jan 27, 2021 - 07:53 AM EST / 2021.01.27 1253 UTC
Wind: Calm:0
Visibility: 10 mile(s):0
Sky conditions: clear
Temperature: -2.0 F (-18.9 C)
Dew Point: -6.0 F (-21.1 C)
Relative Humidity: 82%
Pressure (altimeter): 30.24 in. Hg (1024 hPa)
ob: KBBW 271253Z AUTO 00000KT 10SM CLR M19/M21 A3024 RMK AO2 SLP295 T11891211
cycle: 13

Station Type Date Time Source
KBBW TAF UTC NOAA

Error!

Example: see airport list